Pisgah, Alabama
Current Conditions -  °F | °C
As of 4:15 AM on Tuesday 21 Oct 2014 (Local Time) from K4A6 Reporting Station
Scattered Clouds Scattered Clouds  
Wind Chill: 46°   Ceiling: Unl
Heat Index: 46°   Visibility: 10mi
Dew Point: 46°   Wind: 0mph
Humidity: 100%   Direction: NA
Pressure: 30.04"   Gusts: NA
Location:  34.68°N, 85.85°W
Report Text: K4A6 210915Z AUTO 00000KT 10SM FEW003 SCT041 08/08 A3004 RMK AO2
Loading
Personal Weather Stations






























Interactive Weather Map New forecast layout! Learn more

10-Day Weather Forecast

Advertisements
Track Severe Weather on mobile